FDX420 KLAX-KSAN
Flight info
| Callsign | FDX420 |
|---|---|
| Flight time | 0h 28m |
| Altitude | 13000 |
| Route | LAXX1 MZB |
| Aircraft | B77L/H-SDE1E2E3FGHIJ2J3J4J5M1RWXY/LB1D1 |
Departure
| Time | 2026-04-20 00:29 |
|---|---|
| Airport | Los Angeles International Airport (KLAX) |
Arrival
| Time | 2026-04-20 00:57 |
|---|---|
| Airport | San Diego International Airport (KSAN) |
| Time | Latitude | Longitude | Altitude | Speed | Heading |
|---|---|---|---|---|---|
| 2026-04-20 00:09 | 33.93404 | -118.38838 | 125 ft | 0 kts | 173° |
| 2026-04-20 00:14 | 33.93405 | -118.38838 | 125 ft | 0 kts | 173° |
| 2026-04-20 00:16 | 33.93411 | -118.38839 | 125 ft | 2 kts | 171° |
| 2026-04-20 00:16 | 33.93431 | -118.38844 | 125 ft | 3 kts | 158° |
| 2026-04-20 00:16 | 33.93448 | -118.38855 | 125 ft | 3 kts | 139° |
| 2026-04-20 00:17 | 33.93460 | -118.38872 | 125 ft | 3 kts | 108° |
| 2026-04-20 00:17 | 33.93463 | -118.38887 | 125 ft | 1 kts | 83° |
| 2026-04-20 00:17 | 33.93463 | -118.38888 | 125 ft | 5 kts | 82° |
| 2026-04-20 00:18 | 33.93463 | -118.38887 | 125 ft | 0 kts | 82° |
| 2026-04-20 00:19 | 33.93463 | -118.38886 | 125 ft | 0 kts | 82° |
| 2026-04-20 00:19 | 33.93463 | -118.38885 | 125 ft | 0 kts | 82° |
| 2026-04-20 00:19 | 33.93463 | -118.38882 | 125 ft | 0 kts | 82° |
| 2026-04-20 00:19 | 33.93464 | -118.38878 | 125 ft | 2 kts | 82° |
| 2026-04-20 00:20 | 33.93498 | -118.38824 | 125 ft | 20 kts | 40° |
| 2026-04-20 00:20 | 33.93576 | -118.38677 | 127 ft | 22 kts | 80° |
| 2026-04-20 00:20 | 33.93590 | -118.38498 | 130 ft | 21 kts | 83° |
| 2026-04-20 00:20 | 33.93600 | -118.38391 | 127 ft | 7 kts | 83° |
| 2026-04-20 00:21 | 33.93601 | -118.38381 | 127 ft | 5 kts | 83° |
| 2026-04-20 00:21 | 33.93609 | -118.38315 | 125 ft | 8 kts | 72° |
| 2026-04-20 00:21 | 33.93633 | -118.38285 | 126 ft | 1 kts | 25° |
| 2026-04-20 00:21 | 33.93635 | -118.38285 | 125 ft | 0 kts | 21° |
| 2026-04-20 00:27 | 33.93643 | -118.38283 | 126 ft | 7 kts | 14° |
| 2026-04-20 00:27 | 33.93715 | -118.38300 | 127 ft | 12 kts | 320° |
| 2026-04-20 00:27 | 33.93725 | -118.38389 | 126 ft | 1 kts | 261° |
| 2026-04-20 00:28 | 33.93706 | -118.38566 | 128 ft | 64 kts | 263° |
| 2026-04-20 00:28 | 33.93603 | -118.39528 | 133 ft | 166 kts | 261° |
| 2026-04-20 00:28 | 33.93431 | -118.41138 | 687 ft | 201 kts | 262° |
| 2026-04-20 00:29 | 33.93269 | -118.42786 | 2028 ft | 201 kts | 261° |
| 2026-04-20 00:29 | 33.93060 | -118.44578 | 2381 ft | 231 kts | 256° |
| 2026-04-20 00:29 | 33.92310 | -118.46340 | 2780 ft | 243 kts | 230° |
| 2026-04-20 00:29 | 33.91226 | -118.47965 | 3474 ft | 254 kts | 227° |
| 2026-04-20 00:30 | 33.90057 | -118.49618 | 4256 ft | 264 kts | 226° |
| 2026-04-20 00:30 | 33.88739 | -118.51135 | 5105 ft | 264 kts | 207° |
| 2026-04-20 00:30 | 33.87014 | -118.51814 | 5982 ft | 262 kts | 185° |
| 2026-04-20 00:30 | 33.85195 | -118.51989 | 7015 ft | 260 kts | 182° |
| 2026-04-20 00:31 | 33.83990 | -118.52069 | 7927 ft | 264 kts | 182° |
| 2026-04-20 00:31 | 33.82134 | -118.52166 | 9259 ft | 270 kts | 182° |
| 2026-04-20 00:31 | 33.80240 | -118.52246 | 10472 ft | 277 kts | 181° |
| 2026-04-20 00:31 | 33.78259 | -118.52319 | 11378 ft | 294 kts | 181° |
| 2026-04-20 00:32 | 33.76152 | -118.52391 | 12221 ft | 312 kts | 181° |
| 2026-04-20 00:32 | 33.73905 | -118.52463 | 12905 ft | 337 kts | 181° |
| 2026-04-20 00:32 | 33.71529 | -118.52374 | 12975 ft | 346 kts | 168° |
| 2026-04-20 00:32 | 33.69341 | -118.51145 | 13011 ft | 357 kts | 142° |
| 2026-04-20 00:33 | 33.67727 | -118.48753 | 13020 ft | 382 kts | 121° |
| 2026-04-20 00:33 | 33.66433 | -118.45931 | 13013 ft | 388 kts | 122° |
| 2026-04-20 00:33 | 33.65054 | -118.43138 | 13004 ft | 389 kts | 123° |
| 2026-04-20 00:33 | 33.63624 | -118.40387 | 13000 ft | 388 kts | 124° |
| 2026-04-20 00:34 | 33.62165 | -118.37662 | 13004 ft | 388 kts | 125° |
| 2026-04-20 00:34 | 33.60693 | -118.34957 | 13001 ft | 387 kts | 125° |
| 2026-04-20 00:34 | 33.59214 | -118.32264 | 13008 ft | 386 kts | 125° |
| 2026-04-20 00:34 | 33.57733 | -118.29577 | 13011 ft | 386 kts | 126° |
| 2026-04-20 00:35 | 33.56250 | -118.26894 | 13018 ft | 386 kts | 125° |
| 2026-04-20 00:35 | 33.54763 | -118.24206 | 13019 ft | 388 kts | 125° |
| 2026-04-20 00:35 | 33.53262 | -118.21496 | 13019 ft | 392 kts | 125° |
| 2026-04-20 00:35 | 33.51746 | -118.18761 | 13014 ft | 395 kts | 125° |
| 2026-04-20 00:36 | 33.50229 | -118.16021 | 13001 ft | 394 kts | 125° |
| 2026-04-20 00:36 | 33.48715 | -118.13290 | 13008 ft | 393 kts | 125° |
| 2026-04-20 00:36 | 33.47203 | -118.10564 | 12985 ft | 392 kts | 125° |
| 2026-04-20 00:36 | 33.45694 | -118.07846 | 12987 ft | 392 kts | 125° |
| 2026-04-20 00:37 | 33.44185 | -118.05130 | 12974 ft | 392 kts | 125° |
| 2026-04-20 00:37 | 33.42696 | -118.02451 | 12985 ft | 392 kts | 125° |
| 2026-04-20 00:37 | 33.41186 | -117.99738 | 12991 ft | 392 kts | 125° |
| 2026-04-20 00:37 | 33.39673 | -117.97022 | 12989 ft | 392 kts | 125° |
| 2026-04-20 00:38 | 33.38158 | -117.94303 | 12986 ft | 393 kts | 125° |
| 2026-04-20 00:38 | 33.36638 | -117.91577 | 12985 ft | 394 kts | 125° |
| 2026-04-20 00:38 | 33.35118 | -117.88853 | 12985 ft | 394 kts | 125° |
| 2026-04-20 00:38 | 33.33591 | -117.86119 | 12985 ft | 395 kts | 125° |
| 2026-04-20 00:39 | 33.32066 | -117.83390 | 12984 ft | 395 kts | 125° |
| 2026-04-20 00:39 | 33.30538 | -117.80659 | 12983 ft | 395 kts | 125° |
| 2026-04-20 00:39 | 33.29010 | -117.77929 | 12982 ft | 395 kts | 125° |
| 2026-04-20 00:39 | 33.27482 | -117.75199 | 12983 ft | 395 kts | 125° |
| 2026-04-20 00:40 | 33.25952 | -117.72470 | 12987 ft | 395 kts | 125° |
| 2026-04-20 00:40 | 33.24424 | -117.69746 | 12987 ft | 395 kts | 125° |
| 2026-04-20 00:40 | 33.22895 | -117.67021 | 12984 ft | 395 kts | 125° |
| 2026-04-20 00:40 | 33.21367 | -117.64302 | 12988 ft | 394 kts | 125° |
| 2026-04-20 00:41 | 33.19837 | -117.61581 | 12990 ft | 394 kts | 125° |
| 2026-04-20 00:41 | 33.18311 | -117.58867 | 12990 ft | 394 kts | 125° |
| 2026-04-20 00:41 | 33.16781 | -117.56151 | 12990 ft | 394 kts | 125° |
| 2026-04-20 00:41 | 33.15253 | -117.53438 | 12991 ft | 394 kts | 125° |
| 2026-04-20 00:42 | 33.13723 | -117.50724 | 12992 ft | 394 kts | 125° |
| 2026-04-20 00:42 | 33.12194 | -117.48013 | 12992 ft | 394 kts | 125° |
| 2026-04-20 00:42 | 33.10663 | -117.45301 | 12988 ft | 394 kts | 125° |
| 2026-04-20 00:42 | 33.09131 | -117.42589 | 12999 ft | 394 kts | 125° |
| 2026-04-20 00:43 | 33.07600 | -117.39880 | 13002 ft | 394 kts | 125° |
| 2026-04-20 00:43 | 33.06073 | -117.37167 | 13001 ft | 394 kts | 124° |
| 2026-04-20 00:43 | 33.04578 | -117.34443 | 12894 ft | 389 kts | 124° |
| 2026-04-20 00:43 | 33.03128 | -117.31776 | 12737 ft | 378 kts | 124° |
| 2026-04-20 00:44 | 33.01728 | -117.29189 | 12550 ft | 366 kts | 124° |
| 2026-04-20 00:44 | 33.00372 | -117.26678 | 12313 ft | 355 kts | 124° |
| 2026-04-20 00:44 | 32.99060 | -117.24243 | 12170 ft | 343 kts | 124° |
| 2026-04-20 00:44 | 32.97792 | -117.21885 | 11976 ft | 333 kts | 124° |
| 2026-04-20 00:45 | 32.96561 | -117.19595 | 11776 ft | 324 kts | 124° |
| 2026-04-20 00:45 | 32.95365 | -117.17368 | 11580 ft | 315 kts | 124° |
| 2026-04-20 00:45 | 32.94206 | -117.15206 | 11380 ft | 306 kts | 124° |
| 2026-04-20 00:45 | 32.93074 | -117.13089 | 11083 ft | 301 kts | 124° |
| 2026-04-20 00:46 | 32.91957 | -117.10994 | 10750 ft | 298 kts | 124° |
| 2026-04-20 00:46 | 32.90865 | -117.08940 | 10551 ft | 290 kts | 124° |
| 2026-04-20 00:46 | 32.89811 | -117.06953 | 10262 ft | 286 kts | 124° |
| 2026-04-20 00:46 | 32.88757 | -117.04960 | 9936 ft | 283 kts | 124° |
| 2026-04-20 00:47 | 32.87716 | -117.02983 | 9539 ft | 282 kts | 124° |
| 2026-04-20 00:47 | 32.86677 | -117.01009 | 9120 ft | 281 kts | 124° |
| 2026-04-20 00:47 | 32.85668 | -116.99094 | 8785 ft | 279 kts | 124° |
| 2026-04-20 00:47 | 32.84639 | -116.97142 | 8402 ft | 278 kts | 124° |
| 2026-04-20 00:48 | 32.83614 | -116.95199 | 8010 ft | 277 kts | 124° |
| 2026-04-20 00:48 | 32.82596 | -116.93262 | 7630 ft | 275 kts | 124° |
| 2026-04-20 00:48 | 32.81597 | -116.91350 | 7404 ft | 266 kts | 124° |
| 2026-04-20 00:48 | 32.80671 | -116.89565 | 7213 ft | 243 kts | 124° |
| 2026-04-20 00:49 | 32.79820 | -116.87906 | 6822 ft | 229 kts | 124° |
| 2026-04-20 00:49 | 32.78995 | -116.86291 | 6463 ft | 227 kts | 127° |
| 2026-04-20 00:49 | 32.77898 | -116.85014 | 5964 ft | 221 kts | 158° |
| 2026-04-20 00:49 | 32.76432 | -116.84679 | 5525 ft | 217 kts | 184° |
| 2026-04-20 00:50 | 32.74928 | -116.84925 | 5068 ft | 217 kts | 189° |
| 2026-04-20 00:50 | 32.73441 | -116.85259 | 4669 ft | 217 kts | 191° |
| 2026-04-20 00:50 | 32.71964 | -116.85597 | 4304 ft | 215 kts | 191° |
| 2026-04-20 00:50 | 32.70530 | -116.86077 | 4199 ft | 218 kts | 212° |
| 2026-04-20 00:51 | 32.69483 | -116.87378 | 4188 ft | 223 kts | 242° |
| 2026-04-20 00:51 | 32.68905 | -116.89097 | 4189 ft | 225 kts | 249° |
| 2026-04-20 00:51 | 32.68543 | -116.90898 | 4174 ft | 225 kts | 262° |
| 2026-04-20 00:51 | 32.68420 | -116.92729 | 4073 ft | 221 kts | 263° |
| 2026-04-20 00:52 | 32.68290 | -116.94543 | 3872 ft | 221 kts | 261° |
| 2026-04-20 00:52 | 32.68132 | -116.96370 | 3835 ft | 224 kts | 263° |
| 2026-04-20 00:52 | 32.68241 | -116.98208 | 3785 ft | 225 kts | 282° |
| 2026-04-20 00:52 | 32.68667 | -116.99981 | 3815 ft | 219 kts | 285° |
| 2026-04-20 00:53 | 32.69096 | -117.01644 | 3807 ft | 200 kts | 283° |
| 2026-04-20 00:53 | 32.69485 | -117.03173 | 3567 ft | 187 kts | 284° |
| 2026-04-20 00:53 | 32.69846 | -117.04603 | 3216 ft | 176 kts | 284° |
| 2026-04-20 00:53 | 32.70186 | -117.05972 | 2801 ft | 167 kts | 284° |
| 2026-04-20 00:54 | 32.70497 | -117.07242 | 2378 ft | 158 kts | 284° |
| 2026-04-20 00:54 | 32.70796 | -117.08449 | 2056 ft | 152 kts | 284° |
| 2026-04-20 00:54 | 32.71089 | -117.09689 | 1850 ft | 153 kts | 283° |
| 2026-04-20 00:54 | 32.71376 | -117.10918 | 1631 ft | 156 kts | 285° |
| 2026-04-20 00:55 | 32.71689 | -117.12141 | 1303 ft | 158 kts | 285° |
| 2026-04-20 00:55 | 32.72004 | -117.13408 | 1065 ft | 158 kts | 284° |
| 2026-04-20 00:55 | 32.72306 | -117.14642 | 727 ft | 157 kts | 284° |
| 2026-04-20 00:55 | 32.72604 | -117.15852 | 537 ft | 148 kts | 282° |
| 2026-04-20 00:56 | 32.72888 | -117.17043 | 246 ft | 151 kts | 283° |
| 2026-04-20 00:56 | 32.73165 | -117.18192 | 45 ft | 133 kts | 284° |
| 2026-04-20 00:56 | 32.73390 | -117.19139 | 28 ft | 101 kts | 287° |
| 2026-04-20 00:56 | 32.73549 | -117.19767 | 34 ft | 65 kts | 286° |
| 2026-04-20 00:57 | 32.73631 | -117.20124 | 30 ft | 23 kts | 270° |
| 2026-04-20 00:57 | 32.73526 | -117.20157 | 30 ft | 23 kts | 109° |
| 2026-04-20 00:57 | 32.73520 | -117.20117 | 30 ft | 2 kts | 99° |
| 2026-04-20 00:57 | 32.73518 | -117.20101 | 30 ft | 2 kts | 99° |
| 2026-04-20 00:58 | 32.73515 | -117.20080 | 30 ft | 3 kts | 99° |
| 2026-04-20 00:58 | 32.73512 | -117.20056 | 30 ft | 3 kts | 99° |
| 2026-04-20 00:58 | 32.73512 | -117.20055 | 30 ft | 0 kts | 99° |
| 2026-04-20 00:58 | 32.73511 | -117.20051 | 30 ft | 4 kts | 99° |
| 2026-04-20 00:59 | 32.73493 | -117.19949 | 31 ft | 16 kts | 107° |
| 2026-04-20 00:59 | 32.73461 | -117.19826 | 32 ft | 16 kts | 107° |
| 2026-04-20 00:59 | 32.73430 | -117.19703 | 31 ft | 16 kts | 106° |
| 2026-04-20 00:59 | 32.73401 | -117.19580 | 31 ft | 16 kts | 105° |
| 2026-04-20 01:00 | 32.73369 | -117.19448 | 31 ft | 18 kts | 108° |
| 2026-04-20 01:00 | 32.73335 | -117.19304 | 28 ft | 18 kts | 105° |
| 2026-04-20 01:00 | 32.73297 | -117.19139 | 29 ft | 22 kts | 105° |
| 2026-04-20 01:00 | 32.73260 | -117.18967 | 31 ft | 22 kts | 104° |
| 2026-04-20 01:01 | 32.73212 | -117.18798 | 33 ft | 22 kts | 109° |
| 2026-04-20 01:01 | 32.73170 | -117.18627 | 35 ft | 21 kts | 106° |
| 2026-04-20 01:01 | 32.73153 | -117.18556 | 33 ft | 0 kts | 105° |
| 2026-04-20 01:01 | 32.73151 | -117.18546 | 33 ft | 2 kts | 105° |
| 2026-04-20 01:02 | 32.73148 | -117.18529 | 33 ft | 0 kts | 100° |
| 2026-04-20 01:04 | 32.73148 | -117.18527 | 33 ft | 0 kts | 98° |
| 2026-04-20 01:04 | 32.73229 | -117.18456 | 32 ft | 32 kts | 18° |
| 2026-04-20 01:04 | 32.73402 | -117.18386 | 32 ft | 13 kts | 43° |
| 2026-04-20 01:04 | 32.73400 | -117.18319 | 31 ft | 7 kts | 104° |
| 2026-04-20 01:05 | 32.73399 | -117.18317 | 31 ft | 0 kts | 104° |